createdAt,value
2022-12-03T00:01:55.735Z,18.85
2022-12-03T00:04:23.419Z,20.10
2022-12-03T00:06:50.784Z,19.55
2022-12-03T00:09:17.947Z,19.33
2022-12-03T00:11:45.151Z,19.58
2022-12-03T00:14:12.352Z,18.50
2022-12-03T00:16:39.485Z,17.83
2022-12-03T00:19:07.748Z,18.05
2022-12-03T00:21:35.050Z,17.60
2022-12-03T00:24:02.230Z,18.15
2022-12-03T00:26:29.388Z,16.63
2022-12-03T00:28:57.722Z,17.23
2022-12-03T00:31:25.448Z,20.45
2022-12-03T00:33:52.731Z,18.25
2022-12-03T00:36:20.351Z,18.27
2022-12-03T00:38:47.546Z,18.67
2022-12-03T00:41:14.687Z,19.05
2022-12-03T00:43:41.872Z,17.48
2022-12-03T00:46:09.055Z,19.33
2022-12-03T00:48:36.251Z,17.85
2022-12-03T00:51:03.641Z,18.40
2022-12-03T00:53:30.770Z,18.33
2022-12-03T00:55:57.910Z,17.35
2022-12-03T00:58:25.079Z,17.77
2022-12-03T01:00:52.232Z,17.48
2022-12-03T01:03:19.415Z,19.88
2022-12-03T01:05:46.547Z,18.88
2022-12-03T01:08:14.272Z,17.48
2022-12-03T01:10:41.483Z,18.02
2022-12-03T01:13:08.665Z,17.58
2022-12-03T01:15:35.851Z,18.00
2022-12-03T01:18:03.195Z,18.25
2022-12-03T01:20:30.367Z,18.60
2022-12-03T01:22:57.491Z,19.80
2022-12-03T01:25:24.749Z,18.33
2022-12-03T01:27:51.956Z,18.23
2022-12-03T01:30:19.184Z,17.35
2022-12-03T01:32:46.330Z,18.02
2022-12-03T01:35:13.476Z,17.75
2022-12-03T01:37:40.623Z,18.33
2022-12-03T01:40:08.571Z,18.05
2022-12-03T01:42:37.520Z,17.33
2022-12-03T01:45:04.964Z,16.92
2022-12-03T01:47:33.886Z,17.25
2022-12-03T01:50:03.503Z,18.17
2022-12-03T01:52:32.994Z,17.52
2022-12-03T01:55:01.309Z,19.23
2022-12-03T01:57:28.443Z,17.30
2022-12-03T01:59:56.943Z,16.83
2022-12-03T02:02:25.920Z,17.67
2022-12-03T02:04:53.993Z,17.23
2022-12-03T02:07:23.087Z,19.17
2022-12-03T02:09:50.263Z,18.33
2022-12-03T02:12:19.316Z,18.05
2022-12-03T02:14:46.718Z,17.02
2022-12-03T02:17:14.036Z,18.48
2022-12-03T02:19:41.187Z,19.13
2022-12-03T02:22:17.397Z,18.50
2022-12-03T02:24:50.063Z,18.00
2022-12-03T02:27:17.344Z,18.48
2022-12-03T02:29:44.595Z,20.67
2022-12-03T02:32:11.783Z,18.13
2022-12-03T02:34:43.200Z,20.13
2022-12-03T02:37:16.432Z,19.25
2022-12-03T02:39:45.296Z,17.20
2022-12-03T02:42:31.243Z,19.38
2022-12-03T02:45:05.059Z,19.23
2022-12-03T02:47:33.495Z,19.07
2022-12-03T02:50:00.727Z,19.75
2022-12-03T02:52:27.917Z,20.00
2022-12-03T02:54:55.371Z,19.00
2022-12-03T02:57:22.891Z,20.92
2022-12-03T02:59:50.034Z,20.17
2022-12-03T03:02:17.367Z,21.30
2022-12-03T03:04:45.130Z,19.80
2022-12-03T03:07:12.403Z,21.42
2022-12-03T03:09:39.699Z,20.17
2022-12-03T03:12:07.051Z,21.02
2022-12-03T03:14:34.319Z,20.70
2022-12-03T03:17:01.595Z,20.45
2022-12-03T03:19:29.725Z,20.00
2022-12-03T03:21:56.932Z,21.35
2022-12-03T03:24:24.076Z,20.35
2022-12-03T03:26:51.455Z,19.65
2022-12-03T03:29:18.694Z,19.17
2022-12-03T03:31:46.613Z,18.92
2022-12-03T03:34:14.415Z,18.23
2022-12-03T03:36:41.701Z,18.05
2022-12-03T03:39:08.995Z,18.88
2022-12-03T03:41:36.391Z,19.35
2022-12-03T03:44:04.761Z,18.77
2022-12-03T03:46:33.568Z,17.83
2022-12-03T03:49:00.930Z,18.02
2022-12-03T03:51:28.345Z,16.52
2022-12-03T03:53:55.711Z,17.17
2022-12-03T03:56:23.283Z,17.52
2022-12-03T03:58:50.549Z,16.92
2022-12-03T04:01:18.001Z,17.20
2022-12-03T04:03:45.321Z,17.73
2022-12-03T04:06:12.607Z,18.38
2022-12-03T04:08:39.762Z,17.02
2022-12-03T04:11:26.258Z,15.73
2022-12-03T04:13:53.441Z,16.52
2022-12-03T04:16:20.628Z,15.88
2022-12-03T04:18:47.838Z,17.83
2022-12-03T04:21:34.748Z,16.05
2022-12-03T04:24:02.047Z,17.45
2022-12-03T04:26:48.285Z,16.00
2022-12-03T04:29:15.634Z,17.13
2022-12-03T04:32:01.886Z,17.85
2022-12-03T04:34:47.820Z,16.83
2022-12-03T04:37:15.010Z,17.80
2022-12-03T04:39:42.290Z,16.42
2022-12-03T04:42:09.464Z,16.08
2022-12-03T04:44:36.762Z,16.38
2022-12-03T04:47:06.695Z,16.85
2022-12-03T04:49:34.404Z,16.48
2022-12-03T04:52:01.578Z,17.40
2022-12-03T04:54:29.205Z,17.45
2022-12-03T04:56:56.651Z,18.00
2022-12-03T04:59:23.846Z,18.17
2022-12-03T05:01:51.393Z,17.13
2022-12-03T05:04:18.771Z,17.13
2022-12-03T05:06:45.940Z,16.33
2022-12-03T05:09:13.655Z,16.48
2022-12-03T05:11:41.135Z,17.35
2022-12-03T05:14:08.339Z,18.20
2022-12-03T05:16:36.016Z,16.70
2022-12-03T05:19:03.563Z,17.63
2022-12-03T05:21:30.685Z,17.30
2022-12-03T05:23:57.836Z,18.77
2022-12-03T05:26:25.008Z,18.20
2022-12-03T05:28:52.167Z,18.27
2022-12-03T05:31:19.422Z,18.95
2022-12-03T05:33:46.683Z,17.77
2022-12-03T05:36:13.867Z,18.58
2022-12-03T05:38:41.040Z,18.23
2022-12-03T05:41:28.146Z,17.70
2022-12-03T05:43:55.530Z,18.33
2022-12-03T05:46:22.991Z,17.90
2022-12-03T05:48:50.259Z,18.38
2022-12-03T05:51:17.385Z,18.10
2022-12-03T05:53:44.507Z,18.08
2022-12-03T05:56:11.680Z,17.23
2022-12-03T05:58:39.080Z,16.67
2022-12-03T06:01:06.300Z,18.75
2022-12-03T06:03:33.625Z,18.45
2022-12-03T06:06:01.009Z,16.63
2022-12-03T06:08:28.176Z,17.98
2022-12-03T06:10:55.323Z,18.40
2022-12-03T06:13:22.458Z,18.52
2022-12-03T06:15:49.646Z,17.88
2022-12-03T06:18:16.838Z,17.20
2022-12-03T06:20:43.983Z,20.20
2022-12-03T06:23:11.102Z,20.08
2022-12-03T06:25:38.279Z,18.85
2022-12-03T06:28:06.140Z,17.27
2022-12-03T06:30:34.294Z,18.23
2022-12-03T06:33:01.469Z,17.92
2022-12-03T06:35:28.600Z,19.13
2022-12-03T06:37:55.827Z,17.75
2022-12-03T06:40:24.474Z,17.42
2022-12-03T06:42:52.150Z,17.58
2022-12-03T06:45:19.360Z,17.40
2022-12-03T06:47:46.562Z,17.05
2022-12-03T06:50:14.125Z,17.65
2022-12-03T06:52:41.271Z,17.85
2022-12-03T06:55:08.660Z,17.20
2022-12-03T06:57:35.835Z,16.60
2022-12-03T07:00:03.502Z,18.92
2022-12-03T07:02:30.866Z,17.65
2022-12-03T07:04:58.317Z,17.88
2022-12-03T07:07:25.634Z,18.13
2022-12-03T07:09:52.853Z,17.60
2022-12-03T07:12:20.083Z,17.70
2022-12-03T07:14:47.212Z,18.77
2022-12-03T07:17:14.399Z,18.73
2022-12-03T07:19:41.591Z,20.00
2022-12-03T07:22:08.708Z,19.35
2022-12-03T07:24:35.887Z,19.35
2022-12-03T07:27:03.046Z,18.02
2022-12-03T07:29:30.232Z,18.23
2022-12-03T07:31:57.472Z,19.48
2022-12-03T07:34:24.627Z,19.17
2022-12-03T07:36:51.843Z,20.30
2022-12-03T07:39:18.993Z,18.00
2022-12-03T07:41:46.126Z,20.30
2022-12-03T07:44:14.811Z,22.25
2022-12-03T07:46:42.211Z,20.88
2022-12-03T07:49:09.640Z,21.92
2022-12-03T07:51:36.892Z,20.85
2022-12-03T07:54:04.120Z,22.17
2022-12-03T07:56:31.398Z,20.52
2022-12-03T07:58:58.904Z,21.45
2022-12-03T08:01:26.179Z,20.60
2022-12-03T08:03:53.442Z,22.52
2022-12-03T08:06:20.560Z,21.13
2022-12-03T08:08:47.767Z,21.92
2022-12-03T08:11:15.060Z,21.85
2022-12-03T08:13:42.258Z,21.60
2022-12-03T08:16:27.803Z,22.77
2022-12-03T08:18:57.539Z,22.35
2022-12-03T08:21:24.723Z,19.88
2022-12-03T08:23:51.889Z,22.50
2022-12-03T08:26:19.020Z,23.42
2022-12-03T08:28:46.183Z,22.17
2022-12-03T08:31:19.610Z,21.98
2022-12-03T08:33:51.243Z,23.42
2022-12-03T08:36:18.397Z,22.00
2022-12-03T08:38:47.775Z,22.17
2022-12-03T08:41:15.591Z,22.25
2022-12-03T08:43:43.977Z,23.83
2022-12-03T08:46:13.993Z,24.27
2022-12-03T08:48:47.052Z,23.77
2022-12-03T08:51:20.943Z,24.08
2022-12-03T08:53:55.432Z,22.70
2022-12-03T08:56:28.182Z,23.65
2022-12-03T08:59:21.525Z,24.30
2022-12-03T09:01:49.094Z,23.60
2022-12-03T09:04:22.462Z,23.65
2022-12-03T09:06:49.729Z,23.50
2022-12-03T09:09:16.924Z,23.98
2022-12-03T09:11:44.363Z,24.75
2022-12-03T09:14:18.078Z,24.15
2022-12-03T09:16:45.934Z,25.42
2022-12-03T09:19:13.195Z,24.13
2022-12-03T09:21:40.368Z,25.60
2022-12-03T09:24:07.616Z,25.80
2022-12-03T09:26:34.767Z,26.38
2022-12-03T09:29:01.908Z,25.40
2022-12-03T09:31:29.159Z,24.13
2022-12-03T09:33:56.350Z,26.60
2022-12-03T09:36:23.502Z,25.67
2022-12-03T09:38:51.404Z,24.95
2022-12-03T09:41:18.561Z,26.33
2022-12-03T09:46:33.478Z,23.05
2022-12-03T09:49:01.342Z,23.45
2022-12-03T09:51:31.532Z,27.50
2022-12-03T09:53:59.922Z,25.10
2022-12-03T09:56:27.320Z,24.15
2022-12-03T09:58:54.875Z,25.92
2022-12-03T10:01:22.543Z,27.50
2022-12-03T10:03:53.309Z,27.77
2022-12-03T10:06:22.321Z,25.75
2022-12-03T10:08:50.909Z,27.20
2022-12-03T10:11:19.007Z,26.85
2022-12-03T10:13:46.458Z,26.90
2022-12-03T10:16:15.926Z,25.88
2022-12-03T10:18:44.967Z,25.80
2022-12-03T10:21:24.798Z,25.55
2022-12-03T10:24:11.878Z,24.50
2022-12-03T10:26:40.747Z,25.10
2022-12-03T10:29:25.854Z,24.63
2022-12-03T10:32:01.546Z,23.90
2022-12-03T10:34:33.578Z,24.55
2022-12-03T10:37:21.176Z,24.58
2022-12-03T10:39:56.587Z,23.58
2022-12-03T10:42:24.586Z,24.05
2022-12-03T10:45:07.035Z,24.65
2022-12-03T10:47:34.303Z,24.10
2022-12-03T10:50:06.374Z,23.17
2022-12-03T10:52:33.543Z,23.95
2022-12-03T10:55:00.723Z,24.75
2022-12-03T10:57:27.879Z,24.52
2022-12-03T10:59:55.096Z,25.30
2022-12-03T11:02:23.458Z,23.58
2022-12-03T11:04:51.578Z,24.60
2022-12-03T11:07:20.693Z,24.10
2022-12-03T11:09:49.038Z,27.48
2022-12-03T11:12:20.852Z,25.15
2022-12-03T11:14:52.035Z,25.50
2022-12-03T11:17:38.076Z,22.88
2022-12-03T11:20:05.650Z,23.30
2022-12-03T11:22:40.485Z,24.25
2022-12-03T11:25:28.921Z,22.25
2022-12-03T11:28:14.455Z,21.50
2022-12-03T11:33:21.710Z,20.33
2022-12-03T11:36:09.168Z,22.08
2022-12-03T11:38:47.338Z,21.40
2022-12-03T11:41:19.486Z,23.92
2022-12-03T11:43:52.544Z,22.42
2022-12-03T11:46:19.689Z,22.42
2022-12-03T11:48:47.296Z,22.73
2022-12-03T11:51:15.496Z,23.00
2022-12-03T11:53:43.019Z,22.35
2022-12-03T11:56:18.363Z,22.67
2022-12-03T11:58:46.410Z,23.90
2022-12-03T12:01:14.126Z,22.30
2022-12-03T12:03:49.516Z,22.90
2022-12-03T12:06:18.818Z,22.63
2022-12-03T12:08:52.097Z,22.65
2022-12-03T12:11:20.471Z,21.05
2022-12-03T12:13:47.571Z,22.85
2022-12-03T12:16:34.712Z,22.65
2022-12-03T12:19:21.990Z,21.80
2022-12-03T12:21:50.087Z,22.58
2022-12-03T12:24:29.524Z,22.42
2022-12-03T12:26:57.558Z,21.73
2022-12-03T12:29:24.806Z,22.30
2022-12-03T12:31:54.322Z,20.85
2022-12-03T12:34:21.572Z,22.15
2022-12-03T12:36:48.721Z,22.58
2022-12-03T12:39:16.808Z,21.58
2022-12-03T12:41:48.483Z,22.02
2022-12-03T12:44:15.623Z,21.45
2022-12-03T12:46:48.415Z,21.67
2022-12-03T12:49:16.155Z,20.75
2022-12-03T12:51:46.980Z,21.38
2022-12-03T12:54:15.063Z,22.63
2022-12-03T12:56:44.470Z,22.63
2022-12-03T12:59:16.373Z,21.25
2022-12-03T13:01:44.829Z,23.13
2022-12-03T13:04:13.313Z,21.55
2022-12-03T13:06:40.617Z,21.13
2022-12-03T13:09:24.164Z,23.45
2022-12-03T13:11:58.601Z,22.70
2022-12-03T13:14:26.919Z,21.90
2022-12-03T13:16:56.388Z,21.25
2022-12-03T13:19:23.636Z,21.50
2022-12-03T13:21:51.578Z,22.35
2022-12-03T13:24:27.952Z,21.92
2022-12-03T13:26:55.156Z,20.80
2022-12-03T13:29:25.676Z,20.58
2022-12-03T13:31:52.972Z,19.42
2022-12-03T13:34:22.027Z,20.55
2022-12-03T13:36:57.103Z,20.20
2022-12-03T13:39:35.944Z,20.00
2022-12-03T13:42:27.341Z,19.90
2022-12-03T13:44:54.570Z,19.42
2022-12-03T13:47:22.657Z,21.15
2022-12-03T13:49:57.700Z,20.02
2022-12-03T13:54:53.580Z,19.35
2022-12-03T13:57:20.744Z,19.33
2022-12-03T13:59:47.872Z,18.88
2022-12-03T14:02:15.353Z,19.63
2022-12-03T14:04:42.641Z,19.23
2022-12-03T14:07:09.790Z,18.60
2022-12-03T14:09:36.971Z,18.98
2022-12-03T14:12:33.559Z,17.45
2022-12-03T14:15:01.419Z,17.17
2022-12-03T14:17:28.618Z,17.13
2022-12-03T14:19:56.249Z,16.67
2022-12-03T14:22:25.313Z,17.88
2022-12-03T14:24:53.278Z,17.38
2022-12-03T14:27:20.883Z,20.13
2022-12-03T14:29:48.455Z,17.08
2022-12-03T14:32:15.724Z,17.95
2022-12-03T14:34:43.055Z,16.83
2022-12-03T14:37:10.211Z,19.67
2022-12-03T14:39:37.668Z,17.45
2022-12-03T14:42:14.004Z,19.02
2022-12-03T14:44:51.457Z,18.20
2022-12-03T14:47:20.063Z,18.77
2022-12-03T14:49:47.264Z,20.02
2022-12-03T14:52:14.465Z,18.60
2022-12-03T14:54:44.973Z,18.20
2022-12-03T14:57:13.016Z,18.80
2022-12-03T14:59:43.744Z,18.63
2022-12-03T15:02:11.608Z,19.25
2022-12-03T15:04:39.506Z,22.05
2022-12-03T15:07:06.929Z,17.95
2022-12-03T15:09:34.146Z,18.60
2022-12-03T15:12:01.392Z,18.55
2022-12-03T15:14:28.555Z,22.25
2022-12-03T15:16:55.861Z,21.05
2022-12-03T15:19:23.076Z,21.23
2022-12-03T15:21:50.201Z,21.50
2022-12-03T15:24:17.378Z,21.02
2022-12-03T15:26:44.529Z,22.90
2022-12-03T15:29:11.715Z,21.17
2022-12-03T15:31:38.919Z,19.92
2022-12-03T15:34:06.191Z,20.08
2022-12-03T15:36:33.352Z,20.80
2022-12-03T15:39:00.544Z,20.92
2022-12-03T15:41:30.717Z,21.75
2022-12-03T15:43:58.835Z,19.42
2022-12-03T15:46:27.840Z,20.85
2022-12-03T15:48:55.808Z,20.30
2022-12-03T15:51:22.954Z,21.65
2022-12-03T15:53:50.367Z,20.45
2022-12-03T15:56:17.560Z,20.05
2022-12-03T15:58:44.896Z,20.50
2022-12-03T16:01:13.834Z,20.25
2022-12-03T16:03:41.790Z,20.52
2022-12-03T16:06:09.863Z,19.73
2022-12-03T16:08:37.136Z,21.52
2022-12-03T16:11:04.365Z,22.23
2022-12-03T16:13:31.494Z,21.25
2022-12-03T16:15:58.648Z,19.63
2022-12-03T16:18:25.840Z,20.63
2022-12-03T16:20:53.036Z,22.15
2022-12-03T16:23:20.210Z,20.27
2022-12-03T16:25:47.416Z,21.17
2022-12-03T16:28:14.770Z,21.52
2022-12-03T16:30:41.966Z,20.60
2022-12-03T16:33:09.131Z,21.10
2022-12-03T16:35:36.281Z,21.23
2022-12-03T16:38:03.414Z,21.88
2022-12-03T16:40:30.655Z,21.58
2022-12-03T16:42:57.851Z,22.17
2022-12-03T16:45:34.041Z,21.67
2022-12-03T16:48:02.393Z,20.90
2022-12-03T16:50:30.550Z,20.63
2022-12-03T16:52:58.029Z,22.95
2022-12-03T16:55:25.217Z,22.30
2022-12-03T16:57:52.375Z,22.70
2022-12-03T17:00:21.804Z,22.33
2022-12-03T17:02:49.185Z,21.88
2022-12-03T17:05:16.407Z,22.30
2022-12-03T17:07:43.657Z,22.67
2022-12-03T17:10:11.248Z,23.05
2022-12-03T17:13:07.538Z,22.45
2022-12-03T17:15:25.563Z,22.70
2022-12-03T17:17:52.705Z,21.65
2022-12-03T17:20:20.041Z,23.02
2022-12-03T17:22:47.216Z,22.73
2022-12-03T17:25:14.397Z,26.20
2022-12-03T17:27:45.150Z,24.02
2022-12-03T17:30:13.568Z,24.02
2022-12-03T17:32:41.044Z,23.98
2022-12-03T17:35:08.741Z,24.40
2022-12-03T17:37:36.009Z,21.75
2022-12-03T17:40:03.482Z,22.85
2022-12-03T17:42:30.951Z,21.55
2022-12-03T17:44:58.114Z,22.38
2022-12-03T17:47:25.279Z,23.13
2022-12-03T17:49:52.678Z,22.17
2022-12-03T17:52:19.960Z,23.75
2022-12-03T17:55:10.098Z,24.42
2022-12-03T17:57:34.207Z,23.08
2022-12-03T18:00:01.369Z,23.23
2022-12-03T18:02:28.558Z,23.42
2022-12-03T18:04:55.674Z,23.02
2022-12-03T18:07:22.807Z,22.38
2022-12-03T18:09:49.956Z,23.52
2022-12-03T18:12:17.092Z,23.00
2022-12-03T18:14:44.243Z,25.70
2022-12-03T18:17:11.387Z,22.45
2022-12-03T18:19:38.569Z,22.10
2022-12-03T18:22:05.786Z,23.33
2022-12-03T18:24:32.999Z,25.02
2022-12-03T18:27:00.163Z,23.50
2022-12-03T18:29:27.457Z,23.50
2022-12-03T18:31:54.658Z,24.23
2022-12-03T18:34:21.828Z,24.45
2022-12-03T18:36:49.607Z,22.85
2022-12-03T18:39:25.380Z,22.88
2022-12-03T18:41:53.264Z,22.85
2022-12-03T18:44:20.720Z,22.60
2022-12-03T18:46:55.410Z,23.58
2022-12-03T18:49:23.037Z,23.70
2022-12-03T18:51:54.493Z,22.50
2022-12-03T18:54:25.949Z,21.67
2022-12-03T18:56:53.096Z,22.40
2022-12-03T18:59:20.242Z,22.50
2022-12-03T19:01:47.558Z,22.70
2022-12-03T19:04:14.836Z,24.02
2022-12-03T19:06:41.971Z,24.83
2022-12-03T19:09:09.117Z,23.80
2022-12-03T19:11:36.322Z,25.30
2022-12-03T19:14:03.924Z,24.98
2022-12-03T19:16:31.452Z,25.30
2022-12-03T19:18:58.688Z,24.13
2022-12-03T19:21:30.697Z,25.33
2022-12-03T19:24:23.404Z,24.83
2022-12-03T19:26:47.903Z,26.15
2022-12-03T19:29:15.432Z,26.17
2022-12-03T19:31:42.675Z,24.67
2022-12-03T19:34:09.888Z,26.30
2022-12-03T19:36:37.040Z,27.00
2022-12-03T19:39:04.278Z,25.48
2022-12-03T19:41:31.523Z,26.50
2022-12-03T19:43:59.223Z,26.42
2022-12-03T19:46:28.800Z,28.38
2022-12-03T19:48:56.004Z,27.65
2022-12-03T19:51:38.246Z,27.50
2022-12-03T19:54:06.346Z,26.77
2022-12-03T19:56:34.068Z,29.80
2022-12-03T19:59:01.200Z,27.40
2022-12-03T20:01:29.738Z,29.65
2022-12-03T20:03:58.184Z,29.55
2022-12-03T20:06:26.626Z,27.58
2022-12-03T20:08:57.502Z,28.40
2022-12-03T20:11:25.815Z,29.23
2022-12-03T20:13:54.311Z,29.80
2022-12-03T20:16:21.652Z,28.92
2022-12-03T20:18:49.535Z,31.23
2022-12-03T20:21:17.765Z,29.85
2022-12-03T20:23:45.262Z,29.52
2022-12-03T20:26:16.785Z,29.65
2022-12-03T20:28:44.267Z,32.33
2022-12-03T20:31:13.369Z,33.20
2022-12-03T20:33:41.888Z,31.83
2022-12-03T20:36:09.714Z,30.98
2022-12-03T20:38:37.194Z,30.70
2022-12-03T20:41:05.405Z,31.35
2022-12-03T20:43:32.566Z,30.27
2022-12-03T20:46:09.656Z,30.67
2022-12-03T20:48:37.214Z,28.73
2022-12-03T20:51:05.573Z,29.40
2022-12-03T20:53:33.085Z,30.63
2022-12-03T20:56:00.827Z,31.75
2022-12-03T20:58:28.287Z,31.63
2022-12-03T21:00:55.575Z,30.38
2022-12-03T21:03:23.179Z,31.65
2022-12-03T21:05:50.411Z,29.55
2022-12-03T21:08:33.975Z,29.25
2022-12-03T21:11:07.919Z,30.45
2022-12-03T21:13:35.199Z,29.25
2022-12-03T21:16:03.487Z,26.90
2022-12-03T21:18:30.809Z,27.48
2022-12-03T21:20:59.614Z,26.65
2022-12-03T21:23:27.004Z,25.83
2022-12-03T21:25:54.167Z,26.55
2022-12-03T21:28:21.316Z,25.90
2022-12-03T21:30:48.541Z,27.38
2022-12-03T21:33:15.686Z,27.83
2022-12-03T21:35:42.804Z,25.15
2022-12-03T21:38:10.009Z,27.80
2022-12-03T21:40:37.140Z,28.35
2022-12-03T21:43:04.293Z,27.63
2022-12-03T21:45:31.449Z,29.02
2022-12-03T21:47:58.689Z,25.77
2022-12-03T21:50:25.940Z,25.85
2022-12-03T21:52:53.892Z,26.77
2022-12-03T21:55:21.035Z,27.50
2022-12-03T21:57:48.233Z,27.33
2022-12-03T22:00:15.685Z,25.52
2022-12-03T22:02:42.906Z,27.20
2022-12-03T22:05:10.674Z,27.05
2022-12-03T22:07:38.623Z,27.48
2022-12-03T22:10:06.866Z,25.45
2022-12-03T22:12:34.036Z,26.67
2022-12-03T22:15:01.169Z,26.17
2022-12-03T22:17:28.411Z,25.33
2022-12-03T22:19:55.749Z,28.48
2022-12-03T22:22:23.093Z,29.13
2022-12-03T22:24:50.215Z,26.90
2022-12-03T22:27:17.364Z,27.83
2022-12-03T22:29:44.628Z,28.35
2022-12-03T22:32:11.926Z,26.55
2022-12-03T22:34:41.012Z,27.45
2022-12-03T22:37:08.192Z,28.02
2022-12-03T22:39:35.470Z,27.63
2022-12-03T22:42:02.649Z,28.88
2022-12-03T22:44:29.884Z,28.17
2022-12-03T22:46:57.063Z,27.75
2022-12-03T22:49:24.202Z,28.38
2022-12-03T22:51:51.351Z,28.30
2022-12-03T22:54:23.732Z,26.58
2022-12-03T22:56:51.369Z,30.27
2022-12-03T22:59:18.575Z,28.67
2022-12-03T23:01:45.798Z,26.05
2022-12-03T23:04:13.077Z,26.20
2022-12-03T23:06:40.788Z,28.52
2022-12-03T23:09:08.386Z,28.08
2022-12-03T23:11:35.649Z,28.20
2022-12-03T23:14:03.218Z,27.55
2022-12-03T23:16:31.946Z,27.75
2022-12-03T23:18:59.731Z,25.08
2022-12-03T23:21:30.475Z,26.52
2022-12-03T23:23:58.848Z,27.38
2022-12-03T23:26:26.264Z,27.35
2022-12-03T23:28:53.456Z,26.58
2022-12-03T23:31:28.533Z,26.58
2022-12-03T23:33:56.560Z,28.08
2022-12-03T23:36:24.672Z,27.65
2022-12-03T23:38:51.994Z,29.95
2022-12-03T23:41:20.329Z,26.88
2022-12-03T23:43:47.737Z,27.30
2022-12-03T23:46:16.141Z,27.17
2022-12-03T23:48:43.443Z,29.08
2022-12-03T23:51:14.779Z,29.20
2022-12-03T23:53:42.479Z,28.42
2022-12-03T23:56:11.325Z,27.17
2022-12-03T23:58:38.745Z,27.33
